createdAt,value
2023-04-12T00:01:56.039Z,4.10
2023-04-12T00:04:27.417Z,3.40
2023-04-12T00:06:55.659Z,3.83
2023-04-12T00:09:23.291Z,3.57
2023-04-12T00:11:50.565Z,3.27
2023-04-12T00:14:17.739Z,3.33
2023-04-12T00:16:44.991Z,3.37
2023-04-12T00:19:12.172Z,3.40
2023-04-12T00:21:39.474Z,3.40
2023-04-12T00:24:06.779Z,3.30
2023-04-12T00:26:33.933Z,3.40
2023-04-12T00:29:01.269Z,3.33
2023-04-12T00:31:28.588Z,3.20
2023-04-12T00:33:56.253Z,3.20
2023-04-12T00:36:23.673Z,3.67
2023-04-12T00:38:50.870Z,3.70
2023-04-12T00:41:18.377Z,3.37
2023-04-12T00:43:45.552Z,3.50
2023-04-12T00:46:12.928Z,3.30
2023-04-12T00:48:40.317Z,3.70
2023-04-12T00:51:07.870Z,3.63
2023-04-12T00:53:35.094Z,3.50
2023-04-12T00:56:03.866Z,3.43
2023-04-12T00:58:31.957Z,3.37
2023-04-12T01:01:00.316Z,3.87
2023-04-12T01:03:27.846Z,3.63
2023-04-12T01:06:29.777Z,3.70
2023-04-12T01:09:12.856Z,3.50
2023-04-12T01:12:02.645Z,3.60
2023-04-12T01:14:55.477Z,3.57
2023-04-12T01:17:27.629Z,3.13
2023-04-12T01:20:14.452Z,3.20
2023-04-12T01:23:00.828Z,3.20
2023-04-12T01:25:52.691Z,3.23
2023-04-12T01:28:28.869Z,3.57
2023-04-12T01:30:56.232Z,3.83
2023-04-12T01:33:31.288Z,3.40
2023-04-12T01:36:04.486Z,3.50
2023-04-12T01:38:33.039Z,3.53
2023-04-12T01:41:00.803Z,3.00
2023-04-12T01:43:27.979Z,3.70
2023-04-12T01:45:55.264Z,3.57
2023-04-12T01:48:22.723Z,3.33
2023-04-12T01:50:59.035Z,3.03
2023-04-12T01:53:26.217Z,3.30
2023-04-12T01:55:59.420Z,4.70
2023-04-12T01:58:29.142Z,3.43
2023-04-12T02:00:58.909Z,4.40
2023-04-12T02:03:27.051Z,3.47
2023-04-12T02:05:54.368Z,3.50
2023-04-12T02:08:21.798Z,3.73
2023-04-12T02:10:48.946Z,3.23
2023-04-12T02:13:18.201Z,3.87
2023-04-12T02:15:45.969Z,3.83
2023-04-12T02:18:14.068Z,4.97
2023-04-12T02:20:41.278Z,3.80
2023-04-12T02:23:08.502Z,3.10
2023-04-12T02:25:36.121Z,3.50
2023-04-12T02:28:03.312Z,3.90
2023-04-12T02:30:30.727Z,3.43
2023-04-12T02:32:58.649Z,3.50
2023-04-12T02:35:26.396Z,3.53
2023-04-12T02:37:54.820Z,3.27
2023-04-12T02:40:22.176Z,3.40
2023-04-12T02:42:49.360Z,2.90
2023-04-12T02:45:16.603Z,4.37
2023-04-12T02:47:43.891Z,4.13
2023-04-12T02:50:11.200Z,4.13
2023-04-12T02:52:38.394Z,5.53
2023-04-12T02:55:05.813Z,3.53
2023-04-12T02:57:33.070Z,3.70
2023-04-12T03:00:00.414Z,3.23
2023-04-12T03:02:27.958Z,3.00
2023-04-12T03:04:57.006Z,3.00
2023-04-12T03:07:24.235Z,4.37
2023-04-12T03:09:51.813Z,3.77
2023-04-12T03:12:19.096Z,3.73
2023-04-12T03:14:46.372Z,3.63
2023-04-12T03:17:13.534Z,2.90
2023-04-12T03:19:40.830Z,3.33
2023-04-12T03:22:08.034Z,3.27
2023-04-12T03:24:35.236Z,3.80
2023-04-12T03:27:03.797Z,3.27
2023-04-12T03:29:33.643Z,3.50
2023-04-12T03:32:00.828Z,3.70
2023-04-12T03:34:32.079Z,3.00
2023-04-12T03:37:00.967Z,3.37
2023-04-12T03:39:28.499Z,5.07
2023-04-12T03:41:55.756Z,3.00
2023-04-12T03:44:26.148Z,3.67
2023-04-12T03:46:53.897Z,3.67
2023-04-12T03:49:21.266Z,3.43
2023-04-12T03:51:50.773Z,3.67
2023-04-12T03:54:18.085Z,3.10
2023-04-12T03:56:46.391Z,3.70
2023-04-12T03:59:14.809Z,3.50
2023-04-12T04:01:43.396Z,3.30
2023-04-12T04:04:10.890Z,3.27
2023-04-12T04:06:38.789Z,3.43
2023-04-12T04:09:06.144Z,3.40
2023-04-12T04:11:33.380Z,3.27
2023-04-12T04:14:00.580Z,3.63
2023-04-12T04:16:30.114Z,3.50
2023-04-12T04:18:57.488Z,3.30
2023-04-12T04:21:24.704Z,3.50
2023-04-12T04:23:51.899Z,2.93
2023-04-12T04:26:20.376Z,3.57
2023-04-12T04:28:47.618Z,3.43
2023-04-12T04:31:17.449Z,3.10
2023-04-12T04:33:44.875Z,3.43
2023-04-12T04:36:12.709Z,3.23
2023-04-12T04:38:40.582Z,3.40
2023-04-12T04:41:09.185Z,3.20
2023-04-12T04:43:40.086Z,3.60
2023-04-12T04:46:07.581Z,3.40
2023-04-12T04:48:34.846Z,3.60
2023-04-12T04:51:02.624Z,3.37
2023-04-12T04:53:30.097Z,3.27
2023-04-12T04:56:01.090Z,3.47
2023-04-12T04:58:28.380Z,3.83
2023-04-12T05:00:58.124Z,3.10
2023-04-12T05:03:30.236Z,3.50
2023-04-12T05:05:58.044Z,3.27
2023-04-12T05:08:25.342Z,3.10
2023-04-12T05:10:53.149Z,3.40
2023-04-12T05:13:22.164Z,4.17
2023-04-12T05:15:49.752Z,3.00
2023-04-12T05:18:18.117Z,3.03
2023-04-12T05:20:45.977Z,3.70
2023-04-12T05:23:13.169Z,3.10
2023-04-12T05:25:46.909Z,3.57
2023-04-12T05:28:17.522Z,3.10
2023-04-12T05:30:45.433Z,2.93
2023-04-12T05:33:12.710Z,3.00
2023-04-12T05:35:40.035Z,3.33
2023-04-12T05:38:07.308Z,3.37
2023-04-12T05:40:36.542Z,3.10
2023-04-12T05:43:03.791Z,3.60
2023-04-12T05:45:30.982Z,3.23
2023-04-12T05:47:58.210Z,3.20
2023-04-12T05:50:25.472Z,3.67
2023-04-12T05:52:53.555Z,2.97
2023-04-12T05:55:21.674Z,2.83
2023-04-12T05:57:48.890Z,2.77
2023-04-12T06:00:19.121Z,2.90
2023-04-12T06:02:46.667Z,3.37
2023-04-12T06:05:14.134Z,2.93
2023-04-12T06:07:48.326Z,3.13
2023-04-12T06:10:19.289Z,3.27
2023-04-12T06:12:46.467Z,2.67
2023-04-12T06:15:13.729Z,3.30
2023-04-12T06:17:40.977Z,2.97
2023-04-12T06:20:09.736Z,3.20
2023-04-12T06:22:37.286Z,2.67
2023-04-12T06:25:04.968Z,2.50
2023-04-12T06:27:32.453Z,2.65
2023-04-12T06:29:59.672Z,2.83
2023-04-12T06:32:27.198Z,3.07
2023-04-12T06:34:54.411Z,3.10
2023-04-12T06:37:22.050Z,2.97
2023-04-12T06:39:49.287Z,2.67
2023-04-12T06:42:17.601Z,2.87
2023-04-12T06:44:44.865Z,3.37
2023-04-12T06:47:12.094Z,2.70
2023-04-12T06:49:39.547Z,2.40
2023-04-12T06:52:06.863Z,2.83
2023-04-12T06:54:34.380Z,2.90
2023-04-12T06:57:02.014Z,2.60
2023-04-12T06:59:29.443Z,3.17
2023-04-12T07:01:56.658Z,2.80
2023-04-12T07:04:23.920Z,2.50
2023-04-12T07:06:51.165Z,2.77
2023-04-12T07:09:18.363Z,2.90
2023-04-12T07:11:45.804Z,2.73
2023-04-12T07:14:12.966Z,2.67
2023-04-12T07:16:40.309Z,2.70
2023-04-12T07:19:07.538Z,2.57
2023-04-12T07:21:34.700Z,2.80
2023-04-12T07:24:02.047Z,2.80
2023-04-12T07:26:30.215Z,2.43
2023-04-12T07:28:57.790Z,2.30
2023-04-12T07:31:25.057Z,2.60
2023-04-12T07:33:52.472Z,2.57
2023-04-12T07:36:21.396Z,2.50
2023-04-12T07:38:49.336Z,2.50
2023-04-12T07:41:18.427Z,2.40
2023-04-12T07:43:45.816Z,2.50
2023-04-12T07:46:13.046Z,2.40
2023-04-12T07:48:40.232Z,2.57
2023-04-12T07:51:07.458Z,2.90
2023-04-12T07:53:34.642Z,2.63
2023-04-12T07:56:05.004Z,2.50
2023-04-12T07:58:32.462Z,2.73
2023-04-12T08:01:01.038Z,2.50
2023-04-12T08:03:28.854Z,2.50
2023-04-12T08:05:56.516Z,2.60
2023-04-12T08:08:23.820Z,2.73
2023-04-12T08:10:51.800Z,2.90
2023-04-12T08:13:20.288Z,2.40
2023-04-12T08:15:48.180Z,2.67
2023-04-12T08:18:15.665Z,2.40
2023-04-12T08:20:44.215Z,2.57
2023-04-12T08:23:11.821Z,2.57
2023-04-12T08:25:39.304Z,2.60
2023-04-12T08:28:09.324Z,2.30
2023-04-12T08:30:36.812Z,2.80
2023-04-12T08:33:04.235Z,2.40
2023-04-12T08:35:31.826Z,2.77
2023-04-12T08:38:00.378Z,2.60
2023-04-12T08:40:27.609Z,2.50
2023-04-12T08:42:56.100Z,2.77
2023-04-12T08:45:29.134Z,2.50
2023-04-12T08:47:56.558Z,2.67
2023-04-12T08:50:23.867Z,2.43
2023-04-12T08:52:51.386Z,2.67
2023-04-12T08:55:18.548Z,2.70
2023-04-12T08:57:46.105Z,2.40
2023-04-12T09:00:14.661Z,2.20
2023-04-12T09:02:46.412Z,2.40
2023-04-12T09:05:14.575Z,2.50
2023-04-12T09:07:42.132Z,2.30
2023-04-12T09:10:09.666Z,2.10
2023-04-12T09:12:47.066Z,2.10
2023-04-12T09:15:17.697Z,2.20
2023-04-12T09:17:45.623Z,2.57
2023-04-12T09:20:12.857Z,2.10
2023-04-12T09:22:44.490Z,2.20
2023-04-12T09:25:12.837Z,2.20
2023-04-12T09:27:54.159Z,2.10
2023-04-12T09:30:21.686Z,2.40
2023-04-12T09:32:53.577Z,2.13
2023-04-12T09:35:34.808Z,2.30
2023-04-12T09:38:10.888Z,2.30
2023-04-12T09:40:38.294Z,2.37
2023-04-12T09:43:06.153Z,2.30
2023-04-12T09:45:39.043Z,2.40
2023-04-12T09:48:07.322Z,2.20
2023-04-12T09:50:34.990Z,2.30
2023-04-12T09:53:03.901Z,2.73
2023-04-12T09:55:32.290Z,2.10
2023-04-12T09:58:03.934Z,2.00
2023-04-12T10:00:34.215Z,2.00
2023-04-12T10:03:02.125Z,2.33
2023-04-12T10:05:30.293Z,2.40
2023-04-12T10:07:58.449Z,2.50
2023-04-12T10:10:25.967Z,2.30
2023-04-12T10:12:53.286Z,2.00
2023-04-12T10:15:23.493Z,1.90
2023-04-12T10:17:54.567Z,1.90
2023-04-12T10:20:23.339Z,2.33
2023-04-12T10:22:53.304Z,2.40
2023-04-12T10:25:26.970Z,2.00
2023-04-12T10:27:54.090Z,2.07
2023-04-12T10:30:28.867Z,2.20
2023-04-12T10:33:05.114Z,2.30
2023-04-12T10:35:53.817Z,1.90
2023-04-12T10:38:21.344Z,2.20
2023-04-12T10:41:16.327Z,2.87
2023-04-12T10:43:50.295Z,1.80
2023-04-12T10:46:39.552Z,2.30
2023-04-12T10:49:11.585Z,2.13
2023-04-12T10:51:38.833Z,3.57
2023-04-12T10:54:08.718Z,2.20
2023-04-12T10:56:38.372Z,2.10
2023-04-12T10:59:07.359Z,2.20
2023-04-12T11:01:38.274Z,2.00
2023-04-12T11:04:06.547Z,2.83
2023-04-12T11:06:52.984Z,2.00
2023-04-12T11:09:33.518Z,2.97
2023-04-12T11:12:08.696Z,2.10
2023-04-12T11:14:49.122Z,2.13
2023-04-12T11:17:16.880Z,1.83
2023-04-12T11:19:45.126Z,2.00
2023-04-12T11:22:16.562Z,1.87
2023-04-12T11:24:44.447Z,2.00
2023-04-12T11:27:11.909Z,2.00
2023-04-12T11:29:39.334Z,1.90
2023-04-12T11:32:10.239Z,2.10
2023-04-12T11:34:37.790Z,2.23
2023-04-12T11:37:08.284Z,2.00
2023-04-12T11:39:38.634Z,2.10
2023-04-12T11:42:08.682Z,2.20
2023-04-12T11:44:54.466Z,2.20
2023-04-12T11:47:24.845Z,2.03
2023-04-12T11:49:59.314Z,1.80
2023-04-12T11:52:33.436Z,2.00
2023-04-12T11:55:08.713Z,2.40
2023-04-12T11:57:36.599Z,1.97
2023-04-12T12:00:06.552Z,1.90
2023-04-12T12:02:41.045Z,1.90
2023-04-12T12:05:13.855Z,1.90
2023-04-12T12:07:41.264Z,1.97
2023-04-12T12:10:08.867Z,2.40
2023-04-12T12:12:36.099Z,1.97
2023-04-12T12:15:03.375Z,2.10
2023-04-12T12:17:30.731Z,1.83
2023-04-12T12:19:59.472Z,1.90
2023-04-12T12:22:26.825Z,1.70
2023-04-12T12:24:54.515Z,1.80
2023-04-12T12:27:30.522Z,1.90
2023-04-12T12:30:04.775Z,1.83
2023-04-12T12:32:37.579Z,1.77
2023-04-12T12:35:09.371Z,2.30
2023-04-12T12:37:36.818Z,1.83
2023-04-12T12:40:13.915Z,1.80
2023-04-12T12:42:44.827Z,1.70
2023-04-12T12:45:12.833Z,1.83
2023-04-12T12:47:59.782Z,1.80
2023-04-12T12:50:28.283Z,2.13
2023-04-12T12:52:56.275Z,2.07
2023-04-12T12:55:24.161Z,1.90
2023-04-12T12:58:07.435Z,1.80
2023-04-12T13:00:35.627Z,1.80
2023-04-12T13:03:03.553Z,2.00
2023-04-12T13:05:31.114Z,1.80
2023-04-12T13:07:58.370Z,2.00
2023-04-12T13:10:27.178Z,1.80
2023-04-12T13:12:54.406Z,1.97
2023-04-12T13:15:24.272Z,2.10
2023-04-12T13:17:55.857Z,2.03
2023-04-12T13:20:23.400Z,1.93
2023-04-12T13:22:53.920Z,1.90
2023-04-12T13:25:21.441Z,1.70
2023-04-12T13:27:49.315Z,1.93
2023-04-12T13:30:16.872Z,1.80
2023-04-12T13:32:46.996Z,1.73
2023-04-12T13:35:14.401Z,1.97
2023-04-12T13:37:42.144Z,1.70
2023-04-12T13:40:09.523Z,1.80
2023-04-12T13:42:36.840Z,1.70
2023-04-12T13:45:04.593Z,2.10
2023-04-12T13:47:33.816Z,2.00
2023-04-12T13:50:01.506Z,2.00
2023-04-12T13:52:28.746Z,1.60
2023-04-12T13:54:55.919Z,1.63
2023-04-12T13:57:23.116Z,1.63
2023-04-12T13:59:50.264Z,1.87
2023-04-12T14:02:17.472Z,2.23
2023-04-12T14:04:55.144Z,1.80
2023-04-12T14:07:22.894Z,1.80
2023-04-12T14:09:50.064Z,1.67
2023-04-12T14:12:17.231Z,1.93
2023-04-12T14:14:44.463Z,1.87
2023-04-12T14:17:11.885Z,1.77
2023-04-12T14:19:39.213Z,1.90
2023-04-12T14:22:06.449Z,1.80
2023-04-12T14:24:33.635Z,1.47
2023-04-12T14:27:01.143Z,1.63
2023-04-12T14:29:28.635Z,1.70
2023-04-12T14:31:55.809Z,1.77
2023-04-12T14:34:23.014Z,1.80
2023-04-12T14:36:50.203Z,1.90
2023-04-12T14:39:17.405Z,1.70
2023-04-12T14:41:44.575Z,1.63
2023-04-12T14:44:11.815Z,2.03
2023-04-12T14:46:39.161Z,1.57
2023-04-12T14:49:07.039Z,1.50
2023-04-12T14:51:34.220Z,1.90
2023-04-12T14:54:01.882Z,1.77
2023-04-12T14:56:30.931Z,1.80
2023-04-12T14:58:58.922Z,1.90
2023-04-12T15:01:27.464Z,1.90
2023-04-12T15:03:54.939Z,1.93
2023-04-12T15:06:27.105Z,1.80
2023-04-12T15:08:55.157Z,1.77
2023-04-12T15:11:26.731Z,1.60
2023-04-12T15:13:55.090Z,4.20
2023-04-12T15:16:23.024Z,1.60
2023-04-12T15:18:51.730Z,1.80
2023-04-12T15:21:19.261Z,1.60
2023-04-12T15:23:47.176Z,2.00
2023-04-12T15:26:14.568Z,2.20
2023-04-12T15:28:42.000Z,1.60
2023-04-12T15:31:09.619Z,1.77
2023-04-12T15:33:37.874Z,2.00
2023-04-12T15:36:05.603Z,1.60
2023-04-12T15:38:32.979Z,1.70
2023-04-12T15:41:01.524Z,1.93
2023-04-12T15:43:29.114Z,2.10
2023-04-12T15:45:56.698Z,2.20
2023-04-12T15:48:25.348Z,1.67
2023-04-12T15:50:53.702Z,1.80
2023-04-12T15:53:22.617Z,1.60
2023-04-12T15:55:54.905Z,1.90
2023-04-12T15:58:26.941Z,1.50
2023-04-12T16:00:54.492Z,1.80
2023-04-12T16:03:26.244Z,1.50
2023-04-12T16:05:54.793Z,1.60
2023-04-12T16:08:22.655Z,1.60
2023-04-12T16:10:52.949Z,1.90
2023-04-12T16:13:20.724Z,2.13
2023-04-12T16:15:48.313Z,1.83
2023-04-12T16:18:15.998Z,1.50
2023-04-12T16:20:43.252Z,1.93
2023-04-12T16:23:11.471Z,2.10
2023-04-12T16:25:39.315Z,1.60
2023-04-12T16:28:07.795Z,3.23
2023-04-12T16:30:35.280Z,2.00
2023-04-12T16:33:02.849Z,1.70
2023-04-12T16:35:30.100Z,1.50
2023-04-12T16:37:57.402Z,2.10
2023-04-12T16:40:24.689Z,1.90
2023-04-12T16:42:52.081Z,1.93
2023-04-12T16:45:19.805Z,1.70
2023-04-12T16:47:47.760Z,1.67
2023-04-12T16:50:15.534Z,1.70
2023-04-12T16:52:43.005Z,1.70
2023-04-12T16:55:13.400Z,1.60
2023-04-12T16:57:41.748Z,1.53
2023-04-12T17:00:29.213Z,2.10
2023-04-12T17:02:56.704Z,1.40
2023-04-12T17:05:24.941Z,1.70
2023-04-12T17:07:54.224Z,1.90
2023-04-12T17:10:24.571Z,1.83
2023-04-12T17:12:57.501Z,2.10
2023-04-12T17:15:26.011Z,2.33
2023-04-12T17:17:59.659Z,1.90
2023-04-12T17:20:27.151Z,1.87
2023-04-12T17:22:55.636Z,1.87
2023-04-12T17:25:25.229Z,1.50
2023-04-12T17:27:54.558Z,1.67
2023-04-12T17:30:21.743Z,2.20
2023-04-12T17:32:49.144Z,1.40
2023-04-12T17:35:17.893Z,1.77
2023-04-12T17:37:45.579Z,2.53
2023-04-12T17:40:14.008Z,1.90
2023-04-12T17:42:41.958Z,2.00
2023-04-12T17:45:12.410Z,1.70
2023-04-12T17:47:40.484Z,1.90
2023-04-12T17:50:11.189Z,1.87
2023-04-12T17:52:38.466Z,2.50
2023-04-12T17:55:07.299Z,2.17
2023-04-12T17:57:34.532Z,1.77
2023-04-12T18:00:01.942Z,1.90
2023-04-12T18:02:29.400Z,1.80
2023-04-12T18:04:56.662Z,2.07
2023-04-12T18:07:24.163Z,1.90
2023-04-12T18:09:51.614Z,1.70
2023-04-12T18:12:18.925Z,1.90
2023-04-12T18:14:46.112Z,1.83
2023-04-12T18:17:13.356Z,1.80
2023-04-12T18:19:40.983Z,2.30
2023-04-12T18:22:08.210Z,2.13
2023-04-12T18:24:35.887Z,1.63
2023-04-12T18:27:05.375Z,1.97
2023-04-12T18:29:33.027Z,2.07
2023-04-12T18:32:00.358Z,1.87
2023-04-12T18:34:27.603Z,1.70
2023-04-12T18:36:54.795Z,2.20
2023-04-12T18:39:22.200Z,1.90
2023-04-12T18:41:49.411Z,1.60
2023-04-12T18:44:19.717Z,1.80
2023-04-12T18:46:47.175Z,1.90
2023-04-12T18:49:14.564Z,1.87
2023-04-12T18:51:42.891Z,1.80
2023-04-12T18:54:13.151Z,1.77
2023-04-12T18:56:42.387Z,1.97
2023-04-12T18:59:16.316Z,1.70
2023-04-12T19:01:43.800Z,2.00
2023-04-12T19:04:11.256Z,1.90
2023-04-12T19:06:38.608Z,2.03
2023-04-12T19:09:06.649Z,1.87
2023-04-12T19:11:36.390Z,2.00
2023-04-12T19:14:04.552Z,2.10
2023-04-12T19:16:32.140Z,2.10
2023-04-12T19:19:00.334Z,2.03
2023-04-12T19:21:31.067Z,2.00
2023-04-12T19:23:58.640Z,1.80
2023-04-12T19:26:28.879Z,2.00
2023-04-12T19:28:58.772Z,2.07
2023-04-12T19:31:26.575Z,1.97
2023-04-12T19:33:55.588Z,2.20
2023-04-12T19:36:24.712Z,1.87
2023-04-12T19:38:52.864Z,1.70
2023-04-12T19:41:20.791Z,1.80
2023-04-12T19:43:48.183Z,1.90
2023-04-12T19:46:16.352Z,2.10
2023-04-12T19:48:45.446Z,2.13
2023-04-12T19:51:13.918Z,2.30
2023-04-12T19:53:42.002Z,2.10
2023-04-12T19:56:09.759Z,2.30
2023-04-12T19:58:37.060Z,2.10
2023-04-12T20:01:04.746Z,2.10
2023-04-12T20:03:32.978Z,2.43
2023-04-12T20:06:03.924Z,2.27
2023-04-12T20:08:31.807Z,1.80
2023-04-12T20:10:58.991Z,2.00
2023-04-12T20:13:27.251Z,2.30
2023-04-12T20:15:54.478Z,2.07
2023-04-12T20:18:21.809Z,2.00
2023-04-12T20:20:49.752Z,2.20
2023-04-12T20:23:17.662Z,1.90
2023-04-12T20:25:48.948Z,2.27
2023-04-12T20:28:16.266Z,2.27
2023-04-12T20:30:45.721Z,2.07
2023-04-12T20:33:13.090Z,1.90
2023-04-12T20:35:41.070Z,2.47
2023-04-12T20:38:08.276Z,2.87
2023-04-12T20:40:35.870Z,2.00
2023-04-12T20:43:04.530Z,2.20
2023-04-12T20:45:31.692Z,1.90
2023-04-12T20:47:59.328Z,1.90
2023-04-12T20:50:26.533Z,2.10
2023-04-12T20:52:54.928Z,2.03
2023-04-12T20:55:25.133Z,2.10
2023-04-12T20:57:55.795Z,2.13
2023-04-12T21:00:23.801Z,2.10
2023-04-12T21:02:51.304Z,2.30
2023-04-12T21:05:18.571Z,1.97
2023-04-12T21:07:46.969Z,1.83
2023-04-12T21:10:14.837Z,2.10
2023-04-12T21:12:42.676Z,2.27
2023-04-12T21:15:11.726Z,1.80
2023-04-12T21:17:39.071Z,2.20
2023-04-12T21:20:16.671Z,2.20
2023-04-12T21:22:45.089Z,1.97
2023-04-12T21:25:15.089Z,2.23
2023-04-12T21:27:42.769Z,1.90
2023-04-12T21:30:13.842Z,1.90
2023-04-12T21:32:42.731Z,2.27
2023-04-12T21:35:11.127Z,2.30
2023-04-12T21:37:39.417Z,1.93
2023-04-12T21:40:09.314Z,1.90
2023-04-12T21:42:40.806Z,2.10
2023-04-12T21:45:13.058Z,1.80
2023-04-12T21:47:40.673Z,2.30
2023-04-12T21:50:08.998Z,2.07
2023-04-12T21:52:36.545Z,2.17
2023-04-12T21:55:04.998Z,2.03
2023-04-12T21:57:33.045Z,2.10
2023-04-12T22:00:00.247Z,1.90
2023-04-12T22:02:27.847Z,1.90
2023-04-12T22:04:55.171Z,2.20
2023-04-12T22:07:22.794Z,1.90
2023-04-12T22:09:53.536Z,2.10
2023-04-12T22:12:21.327Z,2.23
2023-04-12T22:14:49.785Z,2.00
2023-04-12T22:17:18.900Z,2.00
2023-04-12T22:19:46.209Z,2.27
2023-04-12T22:22:15.494Z,2.03
2023-04-12T22:24:42.998Z,2.30
2023-04-12T22:27:10.797Z,2.20
2023-04-12T22:29:38.409Z,2.00
2023-04-12T22:32:05.658Z,2.23
2023-04-12T22:34:32.948Z,2.77
2023-04-12T22:37:00.426Z,2.30
2023-04-12T22:39:28.034Z,1.90
2023-04-12T22:41:57.453Z,2.37
2023-04-12T22:44:25.321Z,2.30
2023-04-12T22:46:54.680Z,2.20
2023-04-12T22:49:31.135Z,2.00
2023-04-12T22:51:58.638Z,2.37
2023-04-12T22:54:25.601Z,2.30
2023-04-12T22:56:53.059Z,2.20
2023-04-12T22:59:22.965Z,2.20
2023-04-12T23:01:50.612Z,2.43
2023-04-12T23:04:18.512Z,2.43
2023-04-12T23:06:47.282Z,2.50
2023-04-12T23:09:15.777Z,2.40
2023-04-12T23:11:43.722Z,2.30
2023-04-12T23:14:10.983Z,2.10
2023-04-12T23:16:42.545Z,2.10
2023-04-12T23:19:09.785Z,2.37
2023-04-12T23:21:37.275Z,2.20
2023-04-12T23:24:05.265Z,2.40
2023-04-12T23:26:34.362Z,2.13
2023-04-12T23:29:04.478Z,2.10
2023-04-12T23:31:34.536Z,2.20
2023-04-12T23:34:06.131Z,2.93
2023-04-12T23:36:33.831Z,2.20
2023-04-12T23:39:01.458Z,2.00
2023-04-12T23:41:31.636Z,2.50
2023-04-12T23:43:59.452Z,2.20
2023-04-12T23:46:27.290Z,2.40
2023-04-12T23:48:54.576Z,2.10
2023-04-12T23:51:22.684Z,2.30
2023-04-12T23:53:50.238Z,1.90
2023-04-12T23:56:17.545Z,2.40
2023-04-12T23:58:44.759Z,2.13
